Time;durP1;ratioP1;P1;durP2;ratioP2;P2;SDS_P1;SDS_P2;PMS_P1;PMS_P2;Temp;Humidity;BMP_temperature;BMP_pressure;BME280_temperature;BME280_humidity;BME280_pressure;Samples;Min_cycle;Max_cycle;Signal;HPM_P1;HPM_P2
2022/08/28 08:02:02;;;;;;;9.67;3.23;;;;;;;17.54;67.05;101942.66;5324231;27;1217750;-76
2022/08/28 08:04:34;;;;;;;8.68;3.10;;;;;;;17.51;65.98;101941.28;5337962;27;20690;-76
2022/08/28 08:07:06;;;;;;;6.47;2.88;;;;;;;17.66;65.95;101947.72;5342209;27;20027;-76
2022/08/28 08:09:42;;;;;;;5.25;2.90;;;;;;;17.67;65.84;101955.84;5334524;27;20100;-75
2022/08/28 08:12:13;;;;;;;;;;;;;;;17.77;65.35;101955.63;5337704;27;20500;-75
2022/08/28 08:14:45;;;;;;;7.28;3.03;;;;;;;17.76;64.86;101951.16;5333123;28;19954;-77
2022/08/28 08:17:16;;;;;;;7.40;2.70;;;;;;;17.84;64.24;101946.00;5343460;27;20106;-76
2022/08/28 08:19:50;;;;;;;7.97;2.63;;;;;;;17.98;64.23;101958.88;5327321;28;20015;-76
2022/08/28 08:22:22;;;;;;;7.95;2.65;;;;;;;17.98;63.31;101958.88;5341605;27;20023;-77
2022/08/28 08:24:54;;;;;;;7.07;2.75;;;;;;;18.07;63.24;101958.97;5343093;27;20023;-77
2022/08/28 08:27:26;;;;;;;6.72;2.80;;;;;;;18.10;63.02;101963.13;5327069;27;20462;-77
2022/08/28 08:29:57;;;;;;;6.00;2.40;;;;;;;18.07;62.29;101961.78;5321307;28;20059;-77
2022/08/28 08:32:29;;;;;;;8.43;2.50;;;;;;;18.06;61.61;101968.53;5321964;28;20490;-76
2022/08/28 08:35:00;;;;;;;15.10;10.98;;;;;;;18.16;61.57;101965.50;5321313;28;20107;-76
2022/08/28 08:37:31;;;;;;;10.50;2.53;;;;;;;18.13;61.74;101966.16;5321304;28;20030;-77
2022/08/28 08:40:03;;;;;;;6.85;2.20;;;;;;;18.14;62.29;101967.78;5336950;28;20111;-77
2022/08/28 08:42:37;;;;;;;8.82;2.28;;;;;;;18.18;61.84;101965.22;5325691;27;20039;-77
2022/08/28 08:45:12;;;;;;;9.52;2.85;;;;;;;18.17;61.32;101966.34;5320531;28;20041;-76
2022/08/28 08:47:52;;;;;;;5.47;2.25;;;;;;;18.27;61.97;101962.47;5335524;28;20049;-77
2022/08/28 08:50:28;;;;;;;7.03;2.25;;;;;;;18.58;61.36;101957.81;5341343;27;20034;-77
2022/08/28 08:53:33;;;;;;;6.10;2.42;;;;;;;18.72;61.25;101954.13;5320791;28;20428;-76
2022/08/28 08:56:05;;;;;;;3.95;2.63;;;;;;;18.90;63.93;101959.59;5323771;28;21541;-71
2022/08/28 08:58:43;;;;;;;5.88;2.70;;;;;;;18.99;60.47;101953.19;5327325;28;20031;-71
2022/08/28 09:01:54;;;;;;;8.88;2.47;;;;;;;19.23;62.07;101955.69;5320603;28;20043;-71
2022/08/28 09:04:45;;;;;;;8.68;2.90;;;;;;;19.47;59.03;101955.31;5281140;28;20444;-70
2022/08/28 09:07:31;;;;;;;6.18;2.40;;;;;;;19.64;59.61;101958.22;5320984;28;20050;-70
2022/08/28 09:10:06;;;;;;;6.95;2.40;;;;;;;19.55;59.15;101955.34;5320216;28;20114;-71
2022/08/28 09:12:56;;;;;;;6.93;1.90;;;;;;;19.60;57.35;101956.34;5311628;28;20105;-78
2022/08/28 09:15:39;;;;;;;7.57;2.10;;;;;;;19.55;57.45;101958.16;5325566;28;20027;-78
2022/08/28 09:18:24;;;;;;;4.47;2.15;;;;;;;19.45;57.73;101950.00;5321284;28;20028;-78
2022/08/28 09:20:57;;;;;;;6.15;2.08;;;;;;;19.46;56.63;101956.47;5310631;28;20162;-77
2022/08/28 09:23:28;;;;;;;4.90;2.17;;;;;;;19.53;56.56;101952.03;5326551;28;20090;-75
2022/08/28 09:26:07;;;;;;;7.78;2.22;;;;;;;19.62;56.08;101959.69;5320786;28;20091;-77
2022/08/28 09:28:40;;;;;;;6.93;2.42;;;;;;;19.86;55.81;101954.50;5305926;28;20024;-77
2022/08/28 09:31:14;;;;;;;6.15;2.42;;;;;;;20.00;55.40;101959.19;5322336;28;20114;-78
2022/08/28 09:33:50;;;;;;;6.05;1.98;;;;;;;20.05;55.33;101956.22;5317387;28;20114;-77
2022/08/28 09:36:32;;;;;;;4.15;1.83;;;;;;;20.26;55.24;101946.00;5313428;28;20028;-76
2022/08/28 09:39:05;;;;;;;8.65;6.18;;;;;;;20.20;54.69;101950.94;5320184;28;20028;-76
2022/08/28 09:44:47;;;;;;;7.00;2.20;;;;;;;20.23;54.89;101957.91;5326645;28;20036;-76
2022/08/28 09:47:41;;;;;;;6.97;2.40;;;;;;;20.25;54.50;101955.59;5317524;28;20085;-73
2022/08/28 09:50:24;;;;;;;4.18;2.45;;;;;;;20.05;54.21;101954.22;5305806;28;20043;-77
2022/08/28 09:53:16;;;;;;;7.50;2.13;;;;;;;20.29;54.22;101955.75;5314217;28;20028;-78
2022/08/28 09:56:09;;;;;;;6.78;2.40;;;;;;;20.33;54.36;101951.16;5305832;28;20406;-77
2022/08/28 09:58:47;;;;;;;4.43;2.17;;;;;;;20.17;53.04;101959.22;5305089;28;20442;-77
2022/08/28 10:01:40;;;;;;;5.82;2.08;;;;;;;20.18;52.99;101958.06;5304935;28;20489;-77
2022/08/28 10:04:14;;;;;;;5.82;1.83;;;;;;;20.04;52.61;101960.19;5313544;28;20042;-74
2022/08/28 10:06:52;;;;;;;6.72;2.08;;;;;;;20.01;53.32;101963.66;5317376;28;20114;-76
2022/08/28 10:09:53;;;;;;;4.47;2.10;;;;;;;20.11;52.96;101968.97;5326282;28;20020;-76
2022/08/28 10:12:40;;;;;;;4.75;2.00;;;;;;;20.22;51.99;101967.50;5321546;28;20035;-77
2022/08/28 10:15:45;;;;;;;4.28;1.92;;;;;;;20.30;51.61;101965.88;5323557;28;20474;-77
2022/08/28 10:18:38;;;;;;;7.35;2.00;;;;;;;20.51;51.66;101957.63;5325950;28;20027;-76
2022/08/28 10:21:12;;;;;;;4.30;2.00;;;;;;;20.75;51.22;101957.97;5322416;28;20386;-78
2022/08/28 10:24:22;;;;;;;4.57;1.70;;;;;;;20.96;49.69;101954.47;5325456;28;20118;-75
2022/08/28 10:27:05;;;;;;;4.03;2.00;;;;;;;21.08;53.91;101954.63;5325512;28;20507;-70
2022/08/28 10:29:57;;;;;;;7.10;2.10;;;;;;;21.23;51.29;101945.63;5318642;28;20051;-71
2022/08/28 10:33:05;;;;;;;7.60;2.60;;;;;;;21.36;50.27;101954.22;5322478;28;20069;-71
2022/08/28 10:35:56;;;;;;;3.55;2.13;;;;;;;21.29;51.24;101960.38;5306391;28;20028;-72
2022/08/28 10:38:37;;;;;;;3.88;2.05;;;;;;;20.88;50.85;101961.78;5317891;28;20095;-74
2022/08/28 10:41:27;;;;;;;3.88;2.28;;;;;;;20.73;50.99;101954.66;5324628;28;20039;-73
2022/08/28 10:44:02;;;;;;;5.13;1.90;;;;;;;20.49;51.43;101959.94;5326057;28;20051;-73
2022/08/28 10:46:44;;;;;;;5.10;1.90;;;;;;;20.52;52.13;101957.28;5325576;28;20474;-73
2022/08/28 10:49:35;;;;;;;7.07;2.58;;;;;;;20.60;51.29;101955.66;5324665;28;20023;-73
2022/08/28 10:52:14;;;;;;;5.85;2.35;;;;;;;20.90;50.28;101950.19;5323410;28;20012;-73
2022/08/28 10:55:03;;;;;;;4.50;1.83;;;;;;;20.99;50.06;101953.81;5319908;28;20539;-73
2022/08/28 10:57:50;;;;;;;4.13;2.00;;;;;;;21.28;50.04;101947.44;5319872;28;20023;-73
2022/08/28 11:00:25;;;;;;;5.82;2.00;;;;;;;21.43;48.65;101954.56;5309798;28;20039;-71
2022/08/28 11:03:05;;;;;;;6.07;2.10;;;;;;;21.64;49.56;101955.47;5324835;28;20110;-72
2022/08/28 11:05:41;;;;;;;4.88;2.03;;;;;;;21.66;48.44;101949.50;5325448;28;20020;-73
2022/08/28 11:08:25;;;;;;;3.17;2.00;;;;;;;21.63;48.40;101955.84;5308750;28;20020;-72
2022/08/28 11:10:59;;;;;;;8.18;2.83;;;;;;;21.27;49.02;101951.44;5317564;28;20027;-72
2022/08/28 11:13:50;;;;;;;4.13;2.30;;;;;;;21.15;49.53;101963.41;5321167;28;20469;-73
2022/08/28 11:16:28;;;;;;;3.00;2.20;;;;;;;21.07;50.20;101952.97;5307998;28;20111;-73
2022/08/28 11:19:39;;;;;;;34.60;31.17;;;;;;;21.00;50.02;101952.66;5323518;28;20023;-73
2022/08/28 11:22:20;;;;;;;9.25;2.70;;;;;;;21.16;49.37;101950.94;5322505;28;20374;-73
2022/08/28 11:25:01;;;;;;;7.55;2.17;;;;;;;21.41;48.76;101959.72;5321862;28;20047;-73
2022/08/28 11:27:35;;;;;;;2.42;1.55;;;;;;;21.60;47.86;101956.50;5316948;28;20028;-73
2022/08/28 11:30:15;;;;;;;6.97;2.08;;;;;;;21.71;46.98;101944.50;5309911;28;20428;-73
2022/08/28 11:32:49;;;;;;;3.17;1.63;;;;;;;21.79;46.02;101956.09;5323416;28;20173;-72
2022/08/28 11:35:42;;;;;;;4.10;1.80;;;;;;;21.84;45.97;101953.91;5311205;28;20023;-72
2022/08/28 11:38:58;;;;;;;5.63;1.77;;;;;;;22.04;46.30;101946.66;5321124;28;20031;-71
2022/08/28 11:41:33;;;;;;;6.60;1.93;;;;;;;22.09;45.02;101946.44;5323340;28;20032;-72
2022/08/28 11:44:06;;;;;;;3.85;2.08;;;;;;;21.98;45.54;101956.47;5315762;28;20084;-72
2022/08/28 11:46:51;;;;;;;9.25;6.25;;;;;;;21.68;46.20;101955.66;5320520;28;20398;-73
2022/08/28 11:49:22;;;;;;;5.70;3.28;;;;;;;21.79;46.13;101947.63;5323374;28;20466;-72
2022/08/28 11:52:39;;;;;;;5.23;2.00;;;;;;;22.16;46.39;101954.38;5316776;28;20082;-73
2022/08/28 11:55:11;;;;;;;6.28;2.22;;;;;;;22.09;45.29;101957.75;5284957;28;20845;-73
2022/08/28 11:57:54;;;;;;;3.85;1.83;;;;;;;22.14;45.79;101946.25;5319314;28;20118;-73
2022/08/28 12:00:44;;;;;;;3.45;1.48;;;;;;;22.27;45.25;101954.84;5307135;28;20027;-72
2022/08/28 12:03:55;;;;;;;5.50;2.35;;;;;;;22.18;44.80;101952.03;5307242;28;20025;-73
2022/08/28 12:06:51;;;;;;;2.00;1.55;;;;;;;21.98;44.76;101948.00;5307021;28;20063;-73
2022/08/28 12:09:24;;;;;;;7.35;2.20;;;;;;;22.15;45.11;101947.91;5317751;28;20467;-72
2022/08/28 12:12:08;;;;;;;5.20;2.08;;;;;;;22.30;44.85;101946.50;5311014;28;20089;-73
2022/08/28 12:14:39;;;;;;;4.78;1.90;;;;;;;22.28;43.73;101950.84;5311901;28;20019;-72
2022/08/28 12:17:45;;;;;;;4.80;2.03;;;;;;;22.51;43.29;101943.69;5316989;28;20028;-73
2022/08/28 12:20:54;;;;;;;4.60;1.80;;;;;;;22.85;43.27;101936.06;5307948;28;20471;-73
2022/08/28 12:23:33;;;;;;;5.20;2.03;;;;;;;22.71;42.97;101941.19;5320413;28;20032;-72
2022/08/28 12:26:28;;;;;;;7.00;1.98;;;;;;;22.50;43.28;101938.38;5306068;28;20053;-72
2022/08/28 12:29:26;;;;;;;3.13;1.90;;;;;;;22.43;43.84;101940.94;5313461;28;20371;-73
2022/08/28 12:32:41;;;;;;;2.80;1.52;;;;;;;22.42;43.00;101945.75;5321151;28;20027;-73
2022/08/28 12:35:19;;;;;;;3.08;1.50;;;;;;;22.66;43.43;101939.41;5298372;28;20043;-72
2022/08/28 12:37:53;;;;;;;4.63;1.50;;;;;;;22.77;42.10;101939.78;5316119;28;20035;-73
2022/08/28 12:40:35;;;;;;;6.00;4.47;;;;;;;22.98;41.48;101936.97;5320999;28;20031;-73
2022/08/28 12:43:10;;;;;;;14.25;12.68;;;;;;;22.89;41.73;101934.19;5319122;28;20085;-71
2022/08/28 12:45:51;;;;;;;3.72;1.88;;;;;;;22.80;41.82;101933.44;5319911;28;20027;-71
2022/08/28 12:48:32;;;;;;;2.53;1.58;;;;;;;22.88;41.95;101926.91;5323910;28;20068;-73
2022/08/28 12:51:07;;;;;;;3.53;1.50;;;;;;;23.19;41.18;101917.94;5325518;28;20032;-71
2022/08/28 12:53:45;;;;;;;4.40;1.65;;;;;;;23.21;41.00;101931.72;5319351;28;20072;-71
2022/08/28 12:56:19;;;;;;;4.15;1.90;;;;;;;23.06;40.63;101935.22;5321020;28;20035;-71
2022/08/28 12:58:51;;;;;;;9.35;1.60;;;;;;;23.04;40.30;101927.09;5324157;28;20023;-71
2022/08/28 13:01:31;;;;;;;6.50;4.53;;;;;;;23.45;40.33;101928.13;5325071;28;20047;-72
2022/08/28 13:04:26;;;;;;;3.97;1.63;;;;;;;23.59;39.82;101922.13;5326958;27;20020;-71
2022/08/28 13:07:15;;;;;;;4.00;2.30;;;;;;;23.71;40.13;101915.63;5322821;28;20035;-70
2022/08/28 13:09:50;;;;;;;2.75;1.65;;;;;;;23.48;40.78;101929.44;5324333;28;20048;-70
2022/08/28 13:12:37;;;;;;;4.35;2.38;;;;;;;23.55;40.63;101924.84;5326976;28;20103;-69
2022/08/28 13:15:10;;;;;;;5.03;1.80;;;;;;;23.62;40.19;101919.41;5321912;28;20027;-73
2022/08/28 13:17:47;;;;;;;2.83;1.60;;;;;;;23.76;38.43;101919.09;5326551;28;20031;-72
2022/08/28 13:20:33;;;;;;;65.20;58.15;;;;;;;23.98;38.34;101914.97;5326604;28;20434;-72
2022/08/28 13:23:04;;;;;;;;;;;;;;;24.30;37.16;101924.44;5326381;28;20055;-72
2022/08/28 13:25:36;;;;;;;4.35;1.52;;;;;;;24.04;37.81;101913.53;5317844;28;20002;-72
2022/08/28 13:28:14;;;;;;;1.95;1.48;;;;;;;24.07;37.71;101909.97;5322677;28;20051;-71
2022/08/28 13:30:56;;;;;;;3.13;1.73;;;;;;;24.36;38.22;101910.03;5326169;28;20035;-73
2022/08/28 13:33:28;;;;;;;20.00;18.30;;;;;;;24.30;38.17;101904.59;5322441;28;20030;-74
2022/08/28 13:36:27;;;;;;;16.27;14.82;;;;;;;24.41;38.18;101904.09;5320795;28;20415;-74
2022/08/28 13:38:58;;;;;;;4.13;1.60;;;;;;;24.52;38.27;101908.13;5319819;28;20482;-73
2022/08/28 13:41:30;;;;;;;1.80;1.30;;;;;;;24.24;38.74;101911.72;5316183;28;20020;-69
2022/08/28 13:44:02;;;;;;;5.13;2.30;;;;;;;24.36;39.73;101910.03;5308262;28;20061;-73
2022/08/28 13:46:33;;;;;;;2.80;1.85;;;;;;;24.04;37.32;101902.19;5321590;28;20031;-72
2022/08/28 13:49:04;;;;;;;4.22;1.70;;;;;;;24.44;37.10;101904.22;5326451;28;20102;-71
2022/08/28 13:51:36;;;;;;;3.17;1.55;;;;;;;24.56;36.72;101909.03;5326008;28;20035;-71
2022/08/28 13:54:07;;;;;;;3.55;1.52;;;;;;;24.52;37.09;101905.31;5327394;28;20023;-72
2022/08/28 13:56:38;;;;;;;3.05;1.73;;;;;;;24.80;37.25;101901.63;5327090;28;20102;-71
2022/08/28 13:59:10;;;;;;;2.83;1.42;;;;;;;24.51;37.33;101897.97;5325771;28;20027;-71
2022/08/28 14:04:32;;;;;;;4.93;1.90;;;;;;;24.69;36.54;101904.97;5306061;28;20032;-73
2022/08/28 14:07:04;;;;;;;3.97;1.70;;;;;;;24.69;38.17;101892.81;5304877;28;20107;-71
2022/08/28 14:09:36;;;;;;;7.85;5.72;;;;;;;24.57;37.69;101896.53;5305419;28;20149;-71
2022/08/28 14:12:08;;;;;;;11.40;10.27;;;;;;;24.69;36.97;101881.47;5304689;28;20046;-70
2022/08/28 14:14:40;;;;;;;3.67;1.58;;;;;;;24.70;36.34;101886.78;5305369;28;20034;-71
2022/08/28 14:17:11;;;;;;;5.25;1.48;;;;;;;24.77;36.81;101876.81;5305506;28;20100;-71
2022/08/28 14:19:43;;;;;;;3.53;1.60;;;;;;;24.96;36.72;101879.78;5305352;28;20047;-72
2022/08/28 14:22:15;;;;;;;3.58;1.70;;;;;;;24.67;37.23;101896.03;5305477;28;20027;-72
2022/08/28 14:24:46;;;;;;;4.53;1.98;;;;;;;24.34;38.28;101887.72;5305814;28;20035;-72
2022/08/28 14:27:18;;;;;;;2.63;1.25;;;;;;;24.28;38.20;101889.16;5304617;28;20032;-71
2022/08/28 14:29:52;;;;;;;8.63;4.50;;;;;;;24.25;38.77;101899.19;5305168;28;20024;-71
2022/08/28 14:32:23;;;;;;;5.28;1.85;;;;;;;24.26;38.42;101892.34;5305225;28;20150;-72
2022/08/28 14:34:54;;;;;;;3.63;1.30;;;;;;;24.35;37.37;101894.22;5303624;28;20107;-72
2022/08/28 14:37:26;;;;;;;3.70;1.50;;;;;;;24.44;36.86;101900.53;5321814;28;20176;-72
2022/08/28 14:39:57;;;;;;;6.97;4.47;;;;;;;24.42;36.45;101888.75;5324983;28;20036;-72
2022/08/28 14:42:29;;;;;;;3.85;2.70;;;;;;;24.28;36.74;101889.97;5314837;28;20115;-71
2022/08/28 14:45:00;;;;;;;4.25;2.20;;;;;;;24.06;35.33;101890.50;5303958;28;20020;-71
2022/08/28 14:47:31;;;;;;;2.38;1.33;;;;;;;24.06;35.62;101882.81;5303796;28;20044;-71
2022/08/28 14:50:03;;;;;;;2.83;1.50;;;;;;;24.17;36.06;101877.50;5304977;28;20497;-72
2022/08/28 14:52:34;;;;;;;2.63;1.75;;;;;;;24.08;36.28;101871.13;5307409;28;20108;-72
2022/08/28 14:55:06;;;;;;;3.40;1.92;;;;;;;23.99;36.71;101876.13;5325102;28;20062;-71
2022/08/28 14:57:37;;;;;;;2.25;1.45;;;;;;;24.00;37.64;101874.91;5325528;28;20107;-72
2022/08/28 15:00:09;;;;;;;3.30;1.45;;;;;;;24.15;37.58;101874.19;5325598;28;20024;-71
2022/08/28 15:02:41;;;;;;;3.65;1.52;;;;;;;24.11;37.23;101864.75;5324595;28;20478;-72
2022/08/28 15:05:12;;;;;;;2.90;1.30;;;;;;;24.08;37.56;101871.13;5325652;28;20430;-74
2022/08/28 15:07:44;;;;;;;1.95;1.45;;;;;;;24.42;37.66;101866.09;5325389;28;20080;-74
2022/08/28 15:10:16;;;;;;;1.70;1.30;;;;;;;24.44;37.38;101873.03;5315054;28;20024;-75
2022/08/28 15:12:47;;;;;;;2.80;1.60;;;;;;;24.25;36.48;101867.19;5304243;28;20428;-74
2022/08/28 15:15:19;;;;;;;2.40;1.65;;;;;;;24.01;36.86;101868.09;5303561;28;20111;-72
2022/08/28 15:17:50;;;;;;;2.40;1.70;;;;;;;23.67;36.25;101873.03;5304363;28;20069;-71
2022/08/28 15:20:21;;;;;;;4.10;1.52;;;;;;;23.59;36.43;101871.16;5304342;28;20028;-72
2022/08/28 15:22:52;;;;;;;3.33;1.55;;;;;;;23.59;36.51;101868.31;5303698;28;20020;-71
2022/08/28 15:25:24;;;;;;;1.25;1.15;;;;;;;23.71;36.12;101868.31;5304391;28;20024;-72
2022/08/28 15:27:55;;;;;;;2.72;1.63;;;;;;;23.68;36.73;101868.22;5303309;28;20032;-72
2022/08/28 15:30:27;;;;;;;4.15;1.40;;;;;;;23.64;36.79;101865.25;5303175;28;20382;-72
2022/08/28 15:32:58;;;;;;;2.90;2.05;;;;;;;23.64;37.15;101866.06;5304035;28;20035;-72
2022/08/28 15:35:30;;;;;;;3.25;1.40;;;;;;;23.50;37.75;101870.47;5303838;28;20027;-72
2022/08/28 15:38:02;;;;;;;4.32;1.65;;;;;;;23.50;38.06;101861.97;5302627;28;20028;-71
2022/08/28 15:43:24;;;;;;;2.55;1.63;;;;;;;23.52;38.00;101862.41;5304462;28;20032;-72
2022/08/28 15:45:55;;;;;;;3.42;1.38;;;;;;;23.53;38.56;101864.91;5324775;28;20019;-71
2022/08/28 15:48:29;;;;;;;4.13;1.60;;;;;;;23.60;38.45;101861.50;5325293;28;20439;-72
2022/08/28 15:51:01;;;;;;;2.50;1.30;;;;;;;23.65;38.56;101861.25;5323908;28;20366;-71
2022/08/28 15:53:33;;;;;;;3.53;1.60;;;;;;;23.69;38.16;101861.38;5324739;28;20050;-71
2022/08/28 15:56:04;;;;;;;3.63;1.40;;;;;;;23.60;37.31;101853.00;5324432;28;20378;-74
2022/08/28 15:58:37;;;;;;;4.05;2.00;;;;;;;23.67;37.71;101853.22;5324208;28;20031;-71
2022/08/28 16:01:08;;;;;;;4.63;1.90;;;;;;;23.65;38.15;101856.41;5316590;28;20088;-71
2022/08/28 16:03:39;;;;;;;2.80;1.45;;;;;;;23.75;37.94;101857.97;5303660;28;20055;-71
2022/08/28 16:06:17;;;;;;;1.88;1.30;;;;;;;23.70;37.57;101849.69;5302461;28;20024;-71
2022/08/28 16:08:48;;;;;;;1.42;1.08;;;;;;;23.51;37.27;101861.59;5303887;28;20032;-71
2022/08/28 16:11:21;;;;;;;3.85;1.60;;;;;;;23.50;36.74;101856.31;5302702;28;20047;-71
2022/08/28 16:13:53;;;;;;;2.53;1.50;;;;;;;23.65;37.14;101858.44;5303600;28;20024;-71
2022/08/28 16:16:24;;;;;;;3.47;1.65;;;;;;;23.40;37.32;101855.59;5303600;28;20023;-71
2022/08/28 16:18:56;;;;;;;4.00;1.45;;;;;;;23.49;37.51;101851.81;5303436;28;20055;-71
2022/08/28 16:21:28;;;;;;;3.17;1.50;;;;;;;23.53;37.40;101853.59;5303856;28;20027;-71
2022/08/28 16:23:59;;;;;;;3.53;1.40;;;;;;;23.62;37.62;101854.28;5307902;28;20024;-72
2022/08/28 16:26:31;;;;;;;2.35;1.48;;;;;;;23.66;37.57;101851.56;5306668;28;20024;-72
2022/08/28 16:29:02;;;;;;;4.07;2.08;;;;;;;23.60;37.93;101859.47;5307358;28;20358;-72
2022/08/28 16:31:36;;;;;;;4.43;1.75;;;;;;;23.63;39.29;101860.78;5307318;28;20063;-71
2022/08/28 16:34:09;;;;;;;2.97;2.15;;;;;;;23.65;39.69;101864.09;5306763;28;20120;-71
2022/08/28 16:36:40;;;;;;;2.17;1.48;;;;;;;23.61;40.01;101865.97;5307795;28;20022;-72
2022/08/28 16:39:12;;;;;;;4.68;1.77;;;;;;;23.39;40.32;101870.94;5307389;28;20474;-71
2022/08/28 16:41:48;;;;;;;4.35;1.88;;;;;;;23.58;40.16;101869.50;5306391;28;20031;-71
2022/08/28 16:44:21;;;;;;;2.45;1.58;;;;;;;23.47;39.78;101876.81;5307753;28;20017;-71
2022/08/28 16:46:54;;;;;;;4.57;1.75;;;;;;;23.41;40.08;101873.38;5306440;28;20463;-73
2022/08/28 16:49:25;;;;;;;4.20;2.08;;;;;;;23.15;40.46;101862.41;5307338;28;20546;-72
2022/08/28 16:51:57;;;;;;;3.10;1.77;;;;;;;23.23;40.85;101873.59;5307588;28;20195;-72
2022/08/28 16:54:28;;;;;;;3.83;1.83;;;;;;;23.21;41.06;101869.47;5306430;28;20455;-72
2022/08/28 16:56:59;;;;;;;3.25;1.40;;;;;;;23.32;40.50;101858.53;5307177;28;20032;-71
2022/08/28 16:59:30;;;;;;;4.60;2.00;;;;;;;23.30;40.94;101860.88;5307349;28;20032;-72
2022/08/28 17:02:02;;;;;;;3.25;1.67;;;;;;;23.30;40.81;101858.88;5306019;28;20048;-72
2022/08/28 17:04:34;;;;;;;3.60;1.95;;;;;;;23.31;41.06;101857.69;5306897;28;20035;-71
2022/08/28 17:07:05;;;;;;;3.60;1.95;;;;;;;23.24;40.63;101854.66;5306178;28;20020;-70
2022/08/28 17:09:40;;;;;;;4.25;2.03;;;;;;;23.34;40.66;101856.16;5306140;28;20031;-71
2022/08/28 17:12:12;;;;;;;2.60;1.63;;;;;;;23.32;40.63;101856.53;5306413;28;20036;-71
2022/08/28 17:14:43;;;;;;;3.20;1.70;;;;;;;23.22;39.91;101851.34;5306084;28;20485;-71
2022/08/28 17:17:15;;;;;;;3.80;1.80;;;;;;;23.18;40.02;101865.34;5305626;28;20038;-72
2022/08/28 17:19:46;;;;;;;3.03;1.92;;;;;;;23.08;40.66;101859.31;5305552;28;20028;-71
2022/08/28 17:22:30;;;;;;;2.78;1.40;;;;;;;22.93;41.17;101858.81;5305709;28;20028;-71
2022/08/28 17:25:12;;;;;;;4.18;1.77;;;;;;;22.90;41.31;101862.31;5316609;28;20028;-68
2022/08/28 17:27:43;;;;;;;4.78;1.75;;;;;;;22.72;40.53;101860.84;5321820;28;20467;-73
2022/08/28 17:30:16;;;;;;;3.58;1.70;;;;;;;22.59;41.31;101862.81;5323778;28;20035;-73
2022/08/28 17:32:50;;;;;;;3.28;2.10;;;;;;;22.54;41.81;101863.84;5327254;28;20128;-73
